Time;durP1;ratioP1;P1;durP2;ratioP2;P2;SDS_P1;SDS_P2;PMS_P1;PMS_P2;Temp;Humidity;BMP_temperature;BMP_pressure;BME280_temperature;BME280_humidity;BME280_pressure;Samples;Min_cycle;Max_cycle;Signal;HPM_P1;HPM_P2
2023/02/22 00:00:25;;;;;;;3.72;2.50;;;;;;;-1.12;100.00;92897.19;2068467;28;20038;-81
2023/02/22 00:01:41;;;;;;;3.38;2.63;;;;;;;-1.16;100.00;92891.09;2064272;28;20026;-81
2023/02/22 00:02:43;;;;;;;3.58;2.78;;;;;;;-1.22;100.00;92900.38;2063897;28;20019;-80
2023/02/22 00:03:49;;;;;;;2.67;2.45;;;;;;;-1.24;100.00;92887.59;2079807;28;20022;-81
2023/02/22 00:04:50;;;;;;;6.30;3.13;;;;;;;-1.21;100.00;92886.91;2075397;28;20022;-81
2023/02/22 00:05:58;;;;;;;3.85;2.72;;;;;;;-1.25;100.00;92895.81;2068152;28;20027;-81
2023/02/22 00:07:00;;;;;;;3.95;2.42;;;;;;;-1.20;100.00;92887.66;2074067;28;20510;-81
2023/02/22 00:08:02;;;;;;;3.90;2.47;;;;;;;-1.19;100.00;92892.53;2064203;28;20129;-81
2023/02/22 00:09:05;;;;;;;3.92;2.53;;;;;;;-1.23;100.00;92889.09;2079537;28;20021;-81
2023/02/22 00:10:12;;;;;;;4.00;3.00;;;;;;;-1.24;100.00;92886.81;2074839;28;20041;-82
2023/02/22 00:11:13;;;;;;;3.90;2.88;;;;;;;-1.32;100.00;92885.94;2083574;28;20159;-81
2023/02/22 00:12:15;;;;;;;3.38;2.47;;;;;;;-1.33;100.00;92890.41;2082604;28;20030;-81
2023/02/22 00:13:18;;;;;;;3.53;2.78;;;;;;;-1.25;100.00;92890.56;2074102;28;20073;-82
2023/02/22 00:14:19;;;;;;;3.35;2.40;;;;;;;-1.28;100.00;92884.91;2074668;28;20030;-81
2023/02/22 00:15:26;;;;;;;4.25;2.40;;;;;;;-1.29;100.00;92893.13;2082141;28;20112;-80
2023/02/22 00:16:29;;;;;;;3.53;2.60;;;;;;;-1.30;100.00;92883.75;2065986;28;20502;-81
2023/02/22 00:17:32;;;;;;;4.53;2.75;;;;;;;-1.32;100.00;92883.31;2059888;28;20061;-80
2023/02/22 00:18:35;;;;;;;3.33;2.15;;;;;;;-1.33;100.00;92887.81;2066443;28;20044;-81
2023/02/22 00:19:36;;;;;;;4.00;2.35;;;;;;;-1.31;100.00;92890.09;2073949;28;20053;-81
2023/02/22 00:20:38;;;;;;;4.95;2.42;;;;;;;-1.33;100.00;92881.81;2071874;28;20561;-82
2023/02/22 00:21:40;;;;;;;4.75;2.47;;;;;;;-1.30;100.00;92884.50;2082480;28;20021;-82
2023/02/22 00:22:45;;;;;;;2.42;2.20;;;;;;;-1.32;100.00;92888.56;2073839;28;20549;-83
2023/02/22 00:23:48;;;;;;;4.03;2.45;;;;;;;-1.30;100.00;92887.13;2068347;28;20021;-82
2023/02/22 00:24:50;;;;;;;3.28;2.38;;;;;;;-1.29;100.00;92888.63;2082432;28;20018;-82
2023/02/22 00:25:51;;;;;;;3.92;2.38;;;;;;;-1.34;100.00;92886.28;2090095;28;20020;-83
2023/02/22 00:26:54;;;;;;;4.43;3.00;;;;;;;-1.33;100.00;92881.81;2073855;28;20084;-82
2023/02/22 00:27:55;;;;;;;5.00;2.88;;;;;;;-1.37;100.00;92883.59;2074037;28;20032;-82
2023/02/22 00:29:00;;;;;;;4.57;2.85;;;;;;;-1.35;100.00;92886.66;2074780;28;20069;-80
2023/02/22 00:30:03;;;;;;;6.45;2.97;;;;;;;-1.35;100.00;92878.78;2066018;28;20025;-82
2023/02/22 00:31:06;;;;;;;3.33;2.35;;;;;;;-1.38;100.00;92880.22;2065802;28;20026;-82
2023/02/22 00:32:09;;;;;;;5.63;2.95;;;;;;;-1.43;100.00;92882.38;2066235;28;20034;-82
2023/02/22 00:33:12;;;;;;;4.30;2.60;;;;;;;-1.40;100.00;92868.56;2057753;28;20069;-83
2023/02/22 00:34:13;;;;;;;3.05;2.75;;;;;;;-1.39;100.00;92877.94;2058744;28;20033;-82
2023/02/22 00:35:17;;;;;;;4.55;3.08;;;;;;;-1.40;100.00;92877.19;2065488;28;20126;-84
2023/02/22 00:36:18;;;;;;;3.63;2.80;;;;;;;-1.40;100.00;92874.56;2058970;28;20026;-82
2023/02/22 00:37:19;;;;;;;3.15;2.40;;;;;;;-1.39;100.00;92875.34;2061247;28;20025;-82
2023/02/22 00:38:21;;;;;;;3.70;2.80;;;;;;;-1.41;100.00;92875.66;2058080;28;20027;-82
2023/02/22 00:39:22;;;;;;;4.60;2.65;;;;;;;-1.42;100.00;92874.16;2065885;28;20574;-82
2023/02/22 00:40:26;;;;;;;5.05;2.97;;;;;;;-1.38;100.00;92872.34;2057889;28;20026;-83
2023/02/22 00:41:28;;;;;;;4.13;2.42;;;;;;;-1.39;100.00;92868.22;2075049;28;20395;-82
2023/02/22 00:42:30;;;;;;;4.00;2.65;;;;;;;-1.36;100.00;92874.63;2073759;28;20084;-82
2023/02/22 00:43:31;;;;;;;4.18;2.88;;;;;;;-1.34;100.00;92875.03;2074176;28;20025;-82
2023/02/22 00:44:32;;;;;;;2.88;2.50;;;;;;;-1.47;100.00;92868.44;2065871;28;20210;-82
2023/02/22 00:45:35;;;;;;;5.35;3.10;;;;;;;-1.45;100.00;92879.31;2060433;28;20486;-81
2023/02/22 00:46:38;;;;;;;4.45;2.53;;;;;;;-1.41;100.00;92877.53;2058239;28;20041;-83
2023/02/22 00:47:48;;;;;;;5.05;2.75;;;;;;;-1.49;100.00;92873.25;2050184;28;20054;-82
2023/02/22 00:48:49;;;;;;;3.17;2.60;;;;;;;-1.48;100.00;92870.31;2066618;28;20033;-82
2023/02/22 00:49:51;;;;;;;2.63;2.25;;;;;;;-1.34;100.00;92864.56;2060135;28;20034;-82
2023/02/22 00:50:54;;;;;;;3.78;2.47;;;;;;;-1.35;100.00;92865.66;2065563;28;20093;-82
2023/02/22 00:51:55;;;;;;;5.00;2.70;;;;;;;-1.45;100.00;92874.06;2069588;28;20500;-80
2023/02/22 00:52:58;;;;;;;4.45;2.70;;;;;;;-1.48;100.00;92867.69;2074597;28;20409;-82
2023/02/22 00:54:00;;;;;;;2.67;2.28;;;;;;;-1.47;100.00;92857.94;2082076;28;20045;-83
2023/02/22 00:55:02;;;;;;;4.68;2.28;;;;;;;-1.46;100.00;92867.31;2073950;28;20367;-82
2023/02/22 00:56:04;;;;;;;4.68;3.00;;;;;;;-1.44;100.00;92863.25;2074090;28;20486;-83
2023/02/22 00:57:05;;;;;;;4.15;3.20;;;;;;;-1.43;100.00;92870.00;2066157;28;20065;-82
2023/02/22 00:58:06;;;;;;;4.32;3.00;;;;;;;-1.45;100.00;92861.72;2063722;28;20796;-81
2023/02/22 00:59:08;;;;;;;4.82;2.60;;;;;;;-1.47;100.00;92860.56;2072623;28;20099;-83
2023/02/22 01:00:16;;;;;;;4.72;2.78;;;;;;;-1.52;100.00;92867.59;2073345;28;20033;-82
2023/02/22 01:01:17;;;;;;;6.35;2.83;;;;;;;-1.54;100.00;92859.34;2067749;28;20819;-82
2023/02/22 01:02:18;;;;;;;2.60;2.30;;;;;;;-1.51;100.00;92865.75;2074173;28;20037;-82
2023/02/22 01:03:21;;;;;;;5.15;2.60;;;;;;;-1.43;100.00;92859.53;2081108;28;20060;-82
2023/02/22 01:04:22;;;;;;;3.90;2.60;;;;;;;-1.47;100.00;92863.19;2076574;28;20393;-83
2023/02/22 01:05:27;;;;;;;3.33;2.67;;;;;;;-1.50;100.00;92859.38;2065555;28;20117;-82
2023/02/22 01:06:28;;;;;;;3.45;2.58;;;;;;;-1.52;100.00;92859.75;2074627;28;20049;-83
2023/02/22 01:07:29;;;;;;;4.10;2.65;;;;;;;-1.56;100.00;92864.16;2081525;28;20029;-82
2023/02/22 01:08:31;;;;;;;3.22;2.55;;;;;;;-1.56;100.00;92860.78;2065793;28;20034;-83
2023/02/22 01:09:33;;;;;;;3.08;2.22;;;;;;;-1.64;100.00;92857.25;2057986;28;20058;-83
2023/02/22 01:10:36;;;;;;;5.63;2.75;;;;;;;-1.59;100.00;92856.97;2080879;28;20029;-81
2023/02/22 01:11:37;;;;;;;6.32;2.80;;;;;;;-1.53;100.00;92857.47;2065509;28;20117;-82
2023/02/22 01:12:40;;;;;;;3.40;2.78;;;;;;;-1.53;100.00;92860.84;2063425;28;20577;-82
2023/02/22 01:13:44;;;;;;;4.40;3.30;;;;;;;-1.65;100.00;92850.50;2058012;28;20030;-82
2023/02/22 01:14:45;;;;;;;3.92;2.50;;;;;;;-1.60;100.00;92859.94;2057917;28;20026;-82
2023/02/22 01:15:46;;;;;;;5.38;2.90;;;;;;;-1.62;100.00;92849.81;2057454;28;20023;-82
2023/02/22 01:16:49;;;;;;;5.22;2.60;;;;;;;-1.61;100.00;92847.97;2057574;28;20069;-82
2023/02/22 01:17:52;;;;;;;4.85;2.90;;;;;;;-1.59;100.00;92848.34;2058797;28;20027;-82
2023/02/22 01:18:53;;;;;;;4.03;2.95;;;;;;;-1.58;100.00;92848.03;2065532;28;20052;-82
2023/02/22 01:19:56;;;;;;;3.63;2.80;;;;;;;-1.60;100.00;92842.38;2057513;28;20114;-83
2023/02/22 01:20:57;;;;;;;3.20;2.40;;;;;;;-1.62;100.00;92849.06;2065610;28;20147;-83
2023/02/22 01:21:58;;;;;;;3.70;2.70;;;;;;;-1.62;100.00;92857.69;2073967;28;20026;-82
2023/02/22 01:23:02;;;;;;;3.83;2.72;;;;;;;-1.64;100.00;92848.63;2089760;28;20063;-83
2023/02/22 01:24:03;;;;;;;5.03;2.80;;;;;;;-1.62;100.00;92852.44;2081436;28;20409;-82
2023/02/22 01:25:06;;;;;;;3.17;2.53;;;;;;;-1.62;100.00;92846.44;2057251;28;20034;-82
2023/02/22 01:26:07;;;;;;;5.20;2.72;;;;;;;-1.67;100.00;92851.94;2073850;28;20112;-82
2023/02/22 01:27:11;;;;;;;4.50;2.78;;;;;;;-1.70;100.00;92848.16;2065777;28;20159;-82
2023/02/22 01:28:12;;;;;;;3.95;2.83;;;;;;;-1.66;100.00;92851.63;2054393;28;20027;-82
2023/02/22 01:29:15;;;;;;;4.25;3.35;;;;;;;-1.72;100.00;92842.50;2057188;28;20024;-83
2023/02/22 01:30:22;;;;;;;4.25;2.70;;;;;;;-1.67;100.00;92844.84;2065514;28;20133;-82
2023/02/22 01:31:23;;;;;;;4.18;2.70;;;;;;;-1.69;100.00;92846.31;2059235;28;20026;-81
2023/02/22 01:32:24;;;;;;;3.13;2.40;;;;;;;-1.70;100.00;92840.31;2073474;28;20028;-81
2023/02/22 01:33:25;;;;;;;4.40;2.80;;;;;;;-1.79;100.00;92842.38;2080609;28;20026;-82
2023/02/22 01:34:26;;;;;;;3.78;2.60;;;;;;;-1.70;100.00;92842.94;2065364;28;20022;-82
2023/02/22 01:35:30;;;;;;;3.47;2.63;;;;;;;-1.73;100.00;92843.59;2061140;28;20026;-83
2023/02/22 01:36:31;;;;;;;5.18;2.72;;;;;;;-1.74;100.00;92833.47;2065800;28;20026;-83
2023/02/22 01:37:39;;;;;;;4.05;2.60;;;;;;;-1.72;100.00;92837.25;2073321;28;20108;-82
2023/02/22 01:38:40;;;;;;;4.32;2.50;;;;;;;-1.75;100.00;92834.59;2064491;28;20478;-82
2023/02/22 01:39:41;;;;;;;3.30;2.60;;;;;;;-1.81;100.00;92832.22;2057844;28;20105;-82
2023/02/22 01:40:47;;;;;;;5.10;2.80;;;;;;;-1.77;100.00;92840.16;2065225;28;20133;-82
2023/02/22 01:41:52;;;;;;;2.67;2.45;;;;;;;-1.68;100.00;92839.94;2065785;28;20036;-82
2023/02/22 01:42:59;;;;;;;4.35;2.45;;;;;;;-1.69;100.00;92833.19;2067328;28;20057;-81
2023/02/22 01:44:26;;;;;;;3.10;2.58;;;;;;;-1.69;100.00;92833.97;2066432;28;20414;-81
2023/02/22 01:45:29;;;;;;;3.47;2.60;;;;;;;-1.75;100.00;92826.72;2065140;28;20030;-82
2023/02/22 01:46:31;;;;;;;3.78;2.72;;;;;;;-1.75;100.00;92824.88;2064105;28;20049;-81
2023/02/22 01:47:31;;;;;;;3.63;2.38;;;;;;;-1.78;100.00;92828.16;2057607;28;20075;-82
2023/02/22 01:48:39;;;;;;;3.85;2.40;;;;;;;-1.82;100.00;92824.72;2073299;28;20018;-81
2023/02/22 01:49:46;;;;;;;3.40;2.67;;;;;;;-1.78;100.00;92820.31;2085464;28;20525;-81
2023/02/22 01:51:11;;;;;;;3.65;2.60;;;;;;;-1.82;100.00;92824.72;2079806;28;20029;-83
2023/02/22 01:52:21;;;;;;;3.83;2.65;;;;;;;-1.79;100.00;92821.41;2080979;28;20025;-81
2023/02/22 01:53:35;;;;;;;3.83;2.30;;;;;;;-1.83;100.00;92818.72;2074472;28;20645;-82
2023/02/22 01:54:40;;;;;;;3.65;2.47;;;;;;;-1.86;100.00;92821.28;2074641;28;20121;-82
2023/02/22 01:55:42;;;;;;;4.25;2.30;;;;;;;-1.89;100.00;92803.63;2073627;28;20026;-82
2023/02/22 01:57:07;;;;;;;4.45;2.22;;;;;;;-1.86;100.00;92816.78;2073002;28;20026;-81
2023/02/22 01:58:09;;;;;;;4.63;2.70;;;;;;;-1.86;100.00;92816.78;2067791;28;20036;-82
2023/02/22 01:59:11;;;;;;;3.55;2.78;;;;;;;-1.88;100.00;92813.75;2069533;28;20080;-82
2023/02/22 02:00:19;;;;;;;4.20;2.80;;;;;;;-1.86;100.00;92813.41;2067952;28;20112;-82
2023/02/22 02:01:22;;;;;;;6.43;3.08;;;;;;;-1.90;100.00;92810.72;2073692;28;20021;-82
2023/02/22 02:02:24;;;;;;;7.78;3.13;;;;;;;-1.90;100.00;92815.94;2068677;28;20022;-82
2023/02/22 02:03:28;;;;;;;5.05;2.80;;;;;;;-1.85;100.00;92809.69;2057205;28;20027;-81
2023/02/22 02:04:32;;;;;;;5.85;3.22;;;;;;;-1.85;100.00;92809.69;2065791;28;20072;-82
2023/02/22 02:05:35;;;;;;;4.45;3.10;;;;;;;-1.94;100.00;92803.91;2065658;28;20022;-82
2023/02/22 02:06:37;;;;;;;5.10;2.63;;;;;;;-1.90;100.00;92807.34;2062852;28;20509;-83
2023/02/22 02:07:39;;;;;;;6.15;3.03;;;;;;;-1.92;100.00;92805.06;2073395;28;20438;-82
2023/02/22 02:08:52;;;;;;;3.35;2.65;;;;;;;-1.86;100.00;92808.16;2069766;28;20033;-82
2023/02/22 02:09:59;;;;;;;5.68;2.88;;;;;;;-1.81;100.00;92800.78;2068310;28;20040;-82
2023/02/22 02:11:01;;;;;;;5.63;2.80;;;;;;;-1.80;100.00;92802.31;2073669;28;20482;-83
2023/02/22 02:12:05;;;;;;;3.17;2.53;;;;;;;-1.86;100.00;92808.16;2067028;28;20018;-82
2023/02/22 02:13:07;;;;;;;4.97;3.03;;;;;;;-1.93;100.00;92800.94;2071956;28;20025;-83
2023/02/22 02:14:09;;;;;;;5.50;2.78;;;;;;;-1.92;100.00;92797.22;2057186;28;20019;-82
2023/02/22 02:15:29;;;;;;;4.72;2.83;;;;;;;-1.90;100.00;92799.47;2057387;28;20034;-82
2023/02/22 02:16:38;;;;;;;4.50;2.20;;;;;;;-1.86;100.00;92801.06;2053897;28;20498;-82
2023/02/22 02:17:39;;;;;;;3.90;2.92;;;;;;;-1.89;100.00;92795.75;2058155;28;20058;-82
2023/02/22 02:18:41;;;;;;;4.22;3.00;;;;;;;-1.89;100.00;92798.38;2065353;28;20030;-82
2023/02/22 02:20:06;;;;;;;4.40;2.85;;;;;;;-1.94;100.00;92796.78;2065125;28;20018;-82
2023/02/22 02:21:42;;;;;;;4.70;2.75;;;;;;;-1.98;100.00;92792.59;2079761;28;20028;-82
2023/02/22 02:22:53;;;;;;;7.38;2.42;;;;;;;-1.97;100.00;92791.50;2081187;28;20120;-81
2023/02/22 02:24:22;;;;;;;4.95;2.30;;;;;;;-1.93;100.00;92789.69;2074570;28;20022;-81
2023/02/22 02:25:48;;;;;;;6.63;2.63;;;;;;;-1.94;100.00;92788.19;2072889;28;20021;-82
2023/02/22 02:27:08;;;;;;;3.05;2.25;;;;;;;-1.93;100.00;92785.22;2081031;28;20018;-81
2023/02/22 02:28:15;;;;;;;4.03;2.40;;;;;;;-1.97;100.00;92783.66;2075503;28;20076;-83
2023/02/22 02:29:41;;;;;;;4.53;2.40;;;;;;;-1.99;100.00;92783.22;2071544;28;20030;-83
2023/02/22 02:31:10;;;;;;;2.50;1.98;;;;;;;-1.94;100.00;92780.31;2061537;28;20026;-82
2023/02/22 02:32:26;;;;;;;3.63;2.30;;;;;;;-1.98;100.00;92782.13;2065440;28;20506;-81
2023/02/22 02:33:31;;;;;;;2.95;2.30;;;;;;;-2.09;100.00;92785.28;2091870;28;20441;-82
2023/02/22 02:35:03;;;;;;;3.80;2.60;;;;;;;-2.04;100.00;92785.00;2082281;28;20034;-82
2023/02/22 02:36:11;;;;;;;3.45;2.15;;;;;;;-2.05;100.00;92780.88;2061162;28;20439;-82
2023/02/22 02:37:51;;;;;;;4.95;2.13;;;;;;;-2.06;100.00;92779.38;2050746;28;20031;-82
2023/02/22 02:38:58;;;;;;;3.03;2.03;;;;;;;-2.10;100.00;92783.03;2034622;29;20544;-83
2023/02/22 02:40:20;;;;;;;2.92;2.20;;;;;;;-2.08;100.00;92773.72;2041400;29;20742;-83
2023/02/22 02:41:32;;;;;;;3.13;2.08;;;;;;;-2.00;100.00;92776.47;2054040;28;20079;-83
2023/02/22 02:42:41;;;;;;;2.80;2.38;;;;;;;-1.96;100.00;92774.69;2048531;29;20589;-82
2023/02/22 02:44:01;;;;;;;4.07;2.55;;;;;;;-1.99;100.00;92770.13;2046839;28;20028;-82
2023/02/22 02:45:20;;;;;;;;;;;;;;;-2.03;100.00;92770.06;2062615;28;20448;-83
2023/02/22 02:46:32;;;;;;;7.57;2.60;;;;;;;-2.01;100.00;92774.97;2056884;28;19938;-83
2023/02/22 02:47:39;;;;;;;3.50;2.17;;;;;;;-2.03;100.00;92762.19;2060644;28;20065;-83
2023/02/22 02:49:00;;;;;;;2.85;2.13;;;;;;;-2.09;100.00;92761.72;2064839;28;20053;-82
2023/02/22 02:50:08;;;;;;;4.00;2.30;;;;;;;-2.08;100.00;92757.25;2061997;28;20556;-83
2023/02/22 02:51:14;;;;;;;4.22;2.20;;;;;;;-2.04;100.00;92761.44;2066069;28;20026;-81
2023/02/22 02:52:19;;;;;;;3.90;2.30;;;;;;;-2.05;100.00;92762.56;2073672;28;20072;-83
2023/02/22 02:53:24;;;;;;;2.65;2.13;;;;;;;-2.09;100.00;92755.72;2064831;28;20031;-82
2023/02/22 02:54:26;;;;;;;4.30;2.30;;;;;;;-2.11;100.00;92757.94;2050240;28;20114;-83
2023/02/22 02:55:30;;;;;;;3.45;2.67;;;;;;;-2.09;100.00;92763.59;2041889;28;20028;-82
2023/02/22 02:56:31;;;;;;;5.10;1.95;;;;;;;-2.07;100.00;92749.03;2053823;28;20027;-83
2023/02/22 02:57:32;;;;;;;3.65;2.30;;;;;;;-2.12;100.00;92756.41;2044539;28;20043;-84
2023/02/22 02:58:33;;;;;;;2.58;2.20;;;;;;;-2.15;100.00;92755.25;2056742;28;20440;-84
2023/02/22 02:59:36;;;;;;;4.55;2.47;;;;;;;-2.23;100.00;92758.06;2064532;28;20757;-82
2023/02/22 03:00:40;;;;;;;4.15;2.35;;;;;;;-2.16;100.00;92758.97;2062025;28;20082;-82
2023/02/22 03:02:03;;;;;;;2.35;1.83;;;;;;;-2.18;100.00;92755.19;2065604;28;20166;-82
2023/02/22 03:03:26;;;;;;;4.30;2.20;;;;;;;-2.16;100.00;92761.56;2067988;28;20030;-83
2023/02/22 03:04:36;;;;;;;2.58;2.17;;;;;;;-2.15;100.00;92757.88;2051774;28;20035;-83
2023/02/22 03:05:52;;;;;;;3.97;2.20;;;;;;;-2.15;100.00;92747.41;2057194;28;20034;-82
2023/02/22 03:07:07;;;;;;;2.45;1.90;;;;;;;-2.10;100.00;92754.97;2069509;28;20571;-82
2023/02/22 03:08:29;;;;;;;3.90;2.08;;;;;;;-2.08;100.00;92754.63;2064945;28;20030;-82
2023/02/22 03:09:42;;;;;;;3.80;2.10;;;;;;;-2.09;100.00;92753.88;2054933;28;20033;-82
2023/02/22 03:10:49;;;;;;;3.30;2.22;;;;;;;-2.14;100.00;92753.41;2068292;28;20053;-82
2023/02/22 03:12:01;;;;;;;5.00;2.25;;;;;;;-2.24;100.00;92753.94;2071515;28;20108;-82
2023/02/22 03:13:39;;;;;;;4.28;2.05;;;;;;;-2.19;100.00;92751.06;2061324;28;20072;-82
2023/02/22 03:15:09;;;;;;;2.60;1.95;;;;;;;-2.16;100.00;92753.72;2062202;28;20038;-82
2023/02/22 03:16:19;;;;;;;2.55;1.95;;;;;;;-2.15;100.00;92751.84;2054448;28;20034;-83
2023/02/22 03:17:40;;;;;;;2.30;1.58;;;;;;;-2.22;100.00;92746.50;2066683;28;20485;-82
2023/02/22 03:19:03;;;;;;;3.25;1.85;;;;;;;-2.20;100.00;92747.66;2060281;28;20030;-83
2023/02/22 03:20:19;;;;;;;2.08;1.88;;;;;;;-2.17;100.00;92749.59;2055470;28;20030;-82
2023/02/22 03:21:38;;;;;;;4.30;1.83;;;;;;;-2.23;100.00;92747.59;2053228;28;20031;-82
2023/02/22 03:22:49;;;;;;;4.68;2.00;;;;;;;-2.20;100.00;92749.53;2063314;28;20035;-83
2023/02/22 03:24:04;;;;;;;4.72;1.98;;;;;;;-2.20;100.00;92746.91;2060252;28;20043;-81
2023/02/22 03:25:19;;;;;;;5.07;2.40;;;;;;;-2.27;100.00;92744.91;2072881;28;20057;-84
2023/02/22 03:26:27;;;;;;;3.25;2.13;;;;;;;-2.23;100.00;92750.22;2067117;28;20151;-81
2023/02/22 03:27:36;;;;;;;3.92;1.95;;;;;;;-2.28;100.00;92746.78;2064755;28;20034;-81
2023/02/22 03:28:40;;;;;;;2.97;2.10;;;;;;;-2.23;100.00;92742.38;2069357;28;20018;-81
2023/02/22 03:29:44;;;;;;;2.88;1.90;;;;;;;-2.23;100.00;92743.13;2060403;28;20435;-81
2023/02/22 03:31:04;;;;;;;5.65;2.20;;;;;;;-2.24;100.00;92743.44;2055493;28;20059;-82
2023/02/22 03:32:10;;;;;;;3.33;2.20;;;;;;;-2.22;100.00;92742.03;2062900;28;20042;-81
2023/02/22 03:33:21;;;;;;;3.17;1.85;;;;;;;-2.29;100.00;92740.00;2053896;28;20027;-83
2023/02/22 03:34:31;;;;;;;4.18;2.13;;;;;;;-2.25;100.00;92741.94;2054457;28;20022;-83
2023/02/22 03:35:36;;;;;;;2.15;1.63;;;;;;;-2.29;100.00;92734.00;2063830;28;20098;-81
2023/02/22 03:36:50;;;;;;;3.15;1.80;;;;;;;-2.37;100.00;92734.97;2066553;28;20070;-82
2023/02/22 03:37:57;;;;;;;5.32;2.00;;;;;;;-2.35;100.00;92735.41;2071511;28;20052;-82
2023/02/22 03:39:03;;;;;;;2.55;1.92;;;;;;;-2.36;100.00;92734.66;2075539;28;20479;-82
2023/02/22 03:40:13;;;;;;;3.08;2.03;;;;;;;-2.39;100.00;92732.72;2075366;28;20402;-84
2023/02/22 03:41:22;;;;;;;3.30;2.10;;;;;;;-2.33;100.00;92738.41;2066782;28;20058;-81
2023/02/22 03:42:33;;;;;;;4.20;2.03;;;;;;;-2.30;100.00;92728.03;2067691;28;20030;-82
2023/02/22 03:43:42;;;;;;;2.17;1.98;;;;;;;-2.36;100.00;92728.66;2075989;28;20041;-83
2023/02/22 03:44:45;;;;;;;2.42;1.88;;;;;;;-2.24;100.00;92730.38;2067599;28;20616;-82
2023/02/22 03:45:48;;;;;;;2.85;1.80;;;;;;;-2.32;100.00;92735.47;2058922;28;20494;-82
2023/02/22 03:47:04;;;;;;;3.10;1.90;;;;;;;-2.32;100.00;92729.50;2059026;28;20050;-82
2023/02/22 03:48:22;;;;;;;2.92;1.92;;;;;;;-2.30;100.00;92735.88;2062344;28;20018;-82
2023/02/22 03:49:32;;;;;;;2.55;2.00;;;;;;;-2.30;100.00;92735.13;2062809;28;20035;-83
2023/02/22 03:50:35;;;;;;;2.85;1.65;;;;;;;-2.33;100.00;92738.41;2063142;28;20028;-82
2023/02/22 03:51:38;;;;;;;3.97;1.98;;;;;;;-2.33;100.00;92735.81;2054712;28;20129;-82
2023/02/22 03:52:46;;;;;;;1.90;1.52;;;;;;;-2.32;100.00;92735.47;2059385;28;20019;-82
2023/02/22 03:53:48;;;;;;;3.95;2.00;;;;;;;-2.29;100.00;92734.78;2069509;28;20500;-82
2023/02/22 03:54:52;;;;;;;4.95;1.90;;;;;;;-2.39;100.00;92729.34;2056413;28;20019;-81
2023/02/22 03:55:57;;;;;;;2.95;1.88;;;;;;;-2.36;100.00;92731.28;2068293;28;20038;-83
2023/02/22 03:57:26;;;;;;;3.33;1.95;;;;;;;-2.34;100.00;92731.69;2069273;28;20573;-81
2023/02/22 03:58:31;;;;;;;3.08;1.90;;;;;;;-2.44;100.00;92730.38;2054819;28;20043;-81
2023/02/22 03:59:33;;;;;;;5.05;2.47;;;;;;;-2.38;100.00;92730.84;2067171;28;20054;-82
2023/02/22 04:00:35;;;;;;;3.20;1.80;;;;;;;-2.39;100.00;92730.09;2067567;28;20073;-84
2023/02/22 04:01:36;;;;;;;3.42;2.17;;;;;;;-2.35;100.00;92728.31;2076051;28;20065;-81
2023/02/22 04:02:38;;;;;;;4.18;2.10;;;;;;;-2.36;100.00;92724.19;2067710;28;20057;-82
2023/02/22 04:03:39;;;;;;;4.45;2.03;;;;;;;-2.37;100.00;92729.75;2074145;28;20022;-81
2023/02/22 04:04:40;;;;;;;2.65;2.00;;;;;;;-2.38;100.00;92723.00;2067502;28;20477;-82
2023/02/22 04:05:41;;;;;;;2.90;2.10;;;;;;;-2.39;100.00;92730.09;2058899;28;20026;-81
2023/02/22 04:06:42;;;;;;;3.88;2.28;;;;;;;-2.37;100.00;92729.75;2067034;28;20057;-82
2023/02/22 04:07:43;;;;;;;3.33;2.05;;;;;;;-2.38;100.00;92720.38;2067195;28;20057;-81
2023/02/22 04:08:44;;;;;;;5.00;2.33;;;;;;;-2.45;100.00;92725.50;2075282;28;20018;-82
2023/02/22 04:09:45;;;;;;;4.70;2.10;;;;;;;-2.42;100.00;92724.78;2077251;28;20049;-81
2023/02/22 04:10:46;;;;;;;3.55;1.95;;;;;;;-2.41;100.00;92726.31;2074876;28;20033;-82
2023/02/22 04:11:47;;;;;;;3.47;2.10;;;;;;;-2.38;100.00;92730.84;2074597;28;20033;-82
2023/02/22 04:12:50;;;;;;;3.53;2.28;;;;;;;-2.39;100.00;92729.34;2066219;28;20041;-82
2023/02/22 04:13:53;;;;;;;4.00;2.30;;;;;;;-2.42;100.00;92730.00;2058854;28;20034;-81
2023/02/22 04:14:54;;;;;;;3.03;2.20;;;;;;;-2.39;100.00;92721.47;2082697;28;20092;-82
2023/02/22 04:15:56;;;;;;;3.80;2.28;;;;;;;-2.46;100.00;92721.34;2086803;28;20067;-83
2023/02/22 04:16:58;;;;;;;3.97;2.15;;;;;;;-2.59;100.00;92734.56;2066777;28;20466;-82
2023/02/22 04:18:00;;;;;;;3.15;2.00;;;;;;;-2.50;100.00;92726.50;2058479;28;20022;-81
2023/02/22 04:19:03;;;;;;;3.05;2.13;;;;;;;-2.48;100.00;92726.16;2065912;28;20029;-82
2023/02/22 04:20:06;;;;;;;4.68;2.20;;;;;;;-2.44;100.00;92724.38;2074288;28;20045;-82
2023/02/22 04:21:08;;;;;;;4.85;2.40;;;;;;;-2.46;100.00;92721.34;2066303;28;20061;-82
2023/02/22 04:22:09;;;;;;;3.92;2.40;;;;;;;-2.47;100.00;92722.44;2065802;28;20030;-82
2023/02/22 04:23:10;;;;;;;3.05;2.05;;;;;;;-2.49;100.00;92717.56;2058785;28;20038;-82
2023/02/22 04:24:12;;;;;;;4.13;2.50;;;;;;;-2.53;100.00;92720.09;2061147;28;20022;-82
2023/02/22 04:25:14;;;;;;;2.88;2.05;;;;;;;-2.49;100.00;92722.03;2065356;28;20126;-81
2023/02/22 04:26:15;;;;;;;4.05;2.22;;;;;;;-2.55;100.00;92718.91;2082282;28;20013;-82
2023/02/22 04:27:18;;;;;;;3.35;2.35;;;;;;;-2.59;100.00;92724.09;2084676;28;20029;-81
2023/02/22 04:28:19;;;;;;;3.83;2.30;;;;;;;-2.54;100.00;92715.97;2068049;28;20041;-81
2023/02/22 04:29:20;;;;;;;3.85;2.40;;;;;;;-2.49;100.00;92720.19;2075379;28;20022;-82
2023/02/22 04:30:22;;;;;;;4.35;2.38;;;;;;;-2.53;100.00;92717.47;2075430;28;20041;-81
2023/02/22 04:31:23;;;;;;;5.95;2.70;;;;;;;-2.48;100.00;92718.31;2075392;28;20431;-81
2023/02/22 04:32:25;;;;;;;4.00;2.50;;;;;;;-2.45;100.00;92717.63;2053817;28;20026;-83
2023/02/22 04:33:26;;;;;;;5.15;2.72;;;;;;;-2.45;100.00;92715.03;2064718;28;20030;-82
2023/02/22 04:34:27;;;;;;;4.70;2.85;;;;;;;-2.43;100.00;92723.28;2066585;28;20474;-82
2023/02/22 04:35:28;;;;;;;3.17;2.85;;;;;;;-2.44;100.00;92722.53;2080836;28;20131;-81
2023/02/22 04:36:32;;;;;;;6.55;2.80;;;;;;;-2.41;100.00;92727.06;2073082;28;20062;-81
2023/02/22 04:37:33;;;;;;;6.30;3.10;;;;;;;-2.41;100.00;92721.09;2075277;28;20037;-82
2023/02/22 04:38:34;;;;;;;3.58;2.70;;;;;;;-2.39;100.00;92726.72;2074042;28;20107;-82
2023/02/22 04:39:36;;;;;;;4.90;2.67;;;;;;;-2.35;100.00;92719.69;2082244;28;20032;-82
2023/02/22 04:40:53;;;;;;;3.28;2.47;;;;;;;-2.36;100.00;92718.94;2071232;28;20622;-83
2023/02/22 04:41:54;;;;;;;3.67;2.50;;;;;;;-2.38;100.00;92723.75;2059993;28;20027;-82
2023/02/22 04:42:55;;;;;;;3.88;2.50;;;;;;;-2.41;100.00;92716.59;2073090;28;20574;-81
2023/02/22 04:43:56;;;;;;;4.10;2.47;;;;;;;-2.42;100.00;92719.53;2072728;28;20125;-84
2023/02/22 04:44:57;;;;;;;5.05;2.40;;;;;;;-2.41;100.00;92715.84;2069288;28;20093;-82
2023/02/22 04:45:59;;;;;;;4.47;2.60;;;;;;;-2.44;100.00;92712.06;2066094;28;20497;-82
2023/02/22 04:47:00;;;;;;;4.60;2.80;;;;;;;-2.51;100.00;92721.59;2069907;28;20790;-82
2023/02/22 04:48:01;;;;;;;3.97;2.80;;;;;;;-2.55;100.00;92724.16;2068163;28;20014;-82
2023/02/22 04:49:03;;;;;;;4.45;2.92;;;;;;;-2.55;100.00;92716.28;2083932;28;20442;-81
2023/02/22 04:50:07;;;;;;;4.13;2.70;;;;;;;-2.53;100.00;92716.72;2070455;28;20154;-82
2023/02/22 04:51:08;;;;;;;4.47;2.53;;;;;;;-2.50;100.00;92717.88;2062731;28;20057;-82
2023/02/22 04:52:10;;;;;;;3.58;2.40;;;;;;;-2.47;100.00;92719.81;2066657;28;20050;-85
2023/02/22 04:53:12;;;;;;;5.55;2.78;;;;;;;-2.49;100.00;92716.81;2074590;28;20085;-81
2023/02/22 04:54:13;;;;;;;5.25;2.58;;;;;;;-2.53;100.00;92722.72;2073921;28;20025;-83
2023/02/22 04:55:15;;;;;;;3.80;2.63;;;;;;;-2.49;100.00;92717.56;2057902;28;20030;-84
2023/02/22 04:56:18;;;;;;;3.67;2.60;;;;;;;-2.47;100.00;92719.81;2064658;28;20030;-82
2023/02/22 04:57:19;;;;;;;3.60;2.72;;;;;;;-2.46;100.00;92713.47;2080530;28;20024;-82
2023/02/22 04:58:20;;;;;;;3.53;2.42;;;;;;;-2.46;100.00;92714.25;2073647;28;20018;-82
2023/02/22 04:59:21;;;;;;;5.95;2.72;;;;;;;-2.46;100.00;92710.88;2064816;28;20022;-81
2023/02/22 05:00:22;;;;;;;2.90;2.60;;;;;;;-2.49;100.00;92709.72;2065708;28;20056;-82
2023/02/22 05:01:23;;;;;;;4.95;3.03;;;;;;;-2.53;100.00;92712.25;2065931;28;20028;-82
2023/02/22 05:02:24;;;;;;;5.13;2.88;;;;;;;-2.48;100.00;92705.22;2066997;28;20414;-83
2023/02/22 05:03:25;;;;;;;4.47;3.00;;;;;;;-2.50;100.00;92715.28;2073838;28;20045;-82
2023/02/22 05:04:26;;;;;;;4.88;2.67;;;;;;;-2.49;100.00;92711.56;2067572;28;20060;-83
2023/02/22 05:05:27;;;;;;;5.22;2.85;;;;;;;-2.49;100.00;92706.34;2058028;28;20030;-82
2023/02/22 05:06:28;;;;;;;3.58;2.60;;;;;;;-2.46;100.00;92710.88;2063633;28;20133;-82